Time;durP1;ratioP1;P1;durP2;ratioP2;P2;SDS_P1;SDS_P2;PMS_P1;PMS_P2;Temp;Humidity;BMP_temperature;BMP_pressure;BME280_temperature;BME280_humidity;BME280_pressure;Samples;Min_cycle;Max_cycle;Signal;HPM_P1;HPM_P2
2022/01/10 00:02:13;;;;;;;51.17;25.42;;;;;;;7.55;100.00;99171.34;5091574;28;20482;-82
2022/01/10 00:04:38;;;;;;;52.30;25.85;;;;;;;7.43;100.00;99156.44;5073615;28;20138;-83
2022/01/10 00:07:03;;;;;;;50.38;25.33;;;;;;;7.50;100.00;99167.78;5073449;28;20054;-79
2022/01/10 00:09:29;;;;;;;56.85;27.05;;;;;;;7.58;100.00;99170.56;5091459;28;20032;-80
2022/01/10 00:11:54;;;;;;;49.72;25.70;;;;;;;7.56;100.00;99161.94;5091331;28;20046;-79
2022/01/10 00:14:20;;;;;;;54.90;27.13;;;;;;;7.67;100.00;99181.06;5091544;28;20043;-79
2022/01/10 00:16:45;;;;;;;53.15;25.27;;;;;;;7.69;100.00;99186.25;5091659;28;20116;-80
2022/01/10 00:19:11;;;;;;;48.42;25.75;;;;;;;7.56;100.00;99175.66;5091456;28;20109;-89
2022/01/10 00:21:36;;;;;;;48.83;25.60;;;;;;;7.71;100.00;99198.34;5073331;28;20409;-89
2022/01/10 00:24:02;;;;;;;50.80;24.45;;;;;;;7.71;100.00;99206.03;5068640;28;20043;-89
2022/01/10 00:26:28;;;;;;;49.70;24.42;;;;;;;7.63;100.00;99192.09;5051899;28;20498;-88
2022/01/10 00:28:53;;;;;;;53.30;25.88;;;;;;;7.43;100.00;99173.56;5051901;28;20135;-82
2022/01/10 00:31:19;;;;;;;50.72;25.00;;;;;;;7.46;100.00;99181.34;5068737;28;20467;-82
2022/01/10 00:33:44;;;;;;;51.95;25.67;;;;;;;7.61;100.00;99197.22;5068599;28;20045;-81
2022/01/10 00:36:11;;;;;;;48.53;25.25;;;;;;;7.57;100.00;99194.50;5068740;28;20036;-81
2022/01/10 00:38:37;;;;;;;49.88;25.63;;;;;;;7.42;100.00;99171.81;5068559;28;20072;-81
2022/01/10 00:41:02;;;;;;;53.10;27.50;;;;;;;7.47;100.00;99185.66;5068587;28;20469;-81
2022/01/10 00:43:33;;;;;;;66.88;29.83;;;;;;;7.35;100.00;99170.78;5068514;28;20132;-81
2022/01/10 00:46:00;;;;;;;61.63;30.25;;;;;;;7.44;100.00;99183.88;5051718;28;20525;-82
2022/01/10 00:48:26;;;;;;;51.35;27.23;;;;;;;7.32;100.00;99177.53;5068585;28;20037;-79
2022/01/10 00:50:52;;;;;;;50.13;25.83;;;;;;;7.18;100.00;99162.59;5051645;28;20032;-87
2022/01/10 00:53:17;;;;;;;57.42;29.13;;;;;;;7.18;100.00;99175.41;5051542;28;20103;-80
2022/01/10 00:55:43;;;;;;;56.50;26.50;;;;;;;7.19;100.00;99172.03;5086121;28;20040;-81
2022/01/10 00:58:08;;;;;;;59.53;28.85;;;;;;;7.09;100.00;99146.91;5091338;28;20036;-81
2022/01/10 01:00:34;;;;;;;66.07;30.05;;;;;;;7.05;100.00;99158.78;5072929;28;20024;-85
2022/01/10 01:02:59;;;;;;;77.85;33.80;;;;;;;7.00;100.00;99160.31;5090968;28;20417;-83
2022/01/10 01:05:26;;;;;;;80.97;36.22;;;;;;;7.06;100.00;99157.09;5091840;28;20097;-84
2022/01/10 01:07:52;;;;;;;64.72;30.00;;;;;;;7.09;100.00;99162.28;5076825;28;20071;-85
2022/01/10 01:19:02;;;;;;;59.47;28.25;;;;;;;7.03;100.00;99113.34;5094447;28;20111;-85
2022/01/10 01:24:07;;;;;;;62.63;31.08;;;;;;;7.32;100.00;99146.72;5094878;28;20035;-89
2022/01/10 01:26:35;;;;;;;57.17;28.20;;;;;;;7.51;100.00;99155.81;5077029;28;20512;-89
2022/01/10 01:29:02;;;;;;;58.15;27.58;;;;;;;7.61;100.00;99161.25;5076535;28;20040;-87
2022/01/10 01:31:27;;;;;;;51.90;28.33;;;;;;;7.57;100.00;99153.41;5076336;28;20185;-87
2022/01/10 01:33:53;;;;;;;60.22;30.30;;;;;;;7.57;100.00;99151.69;5076571;28;20114;-88
2022/01/10 01:36:25;;;;;;;55.20;28.88;;;;;;;7.63;100.00;99165.53;5076338;28;20110;-84
2022/01/10 01:38:54;;;;;;;51.13;27.20;;;;;;;7.51;100.00;99130.13;5076161;28;20028;-87
2022/01/10 01:43:51;;;;;;;50.20;26.85;;;;;;;7.36;100.00;99104.88;5094027;28;20032;-86
2022/01/10 01:46:18;;;;;;;52.30;27.00;;;;;;;7.75;100.00;99158.16;5076125;28;20040;-84
2022/01/10 01:48:44;;;;;;;48.22;27.35;;;;;;;7.36;100.00;99100.59;5076113;28;20126;-83
2022/01/10 01:51:10;;;;;;;52.13;27.35;;;;;;;7.50;100.00;99139.53;5094031;28;20103;-82
2022/01/10 01:53:37;;;;;;;52.80;28.33;;;;;;;7.52;100.00;99160.97;5093902;28;20035;-80
2022/01/10 01:56:08;;;;;;;50.10;28.80;;;;;;;7.26;100.00;99107.22;5075662;28;20406;-81
2022/01/10 01:58:36;;;;;;;49.20;27.55;;;;;;;6.84;100.00;99040.13;5094105;28;20115;-83
2022/01/10 02:01:02;;;;;;;53.22;29.20;;;;;;;7.48;100.00;99133.47;5075988;28;20107;-81
2022/01/10 02:03:29;;;;;;;53.80;27.23;;;;;;;7.42;100.00;99125.59;5094041;28;20116;-84
2022/01/10 02:05:55;;;;;;;46.42;25.73;;;;;;;7.50;100.00;99136.97;5093834;28;20486;-85
2022/01/10 02:08:21;;;;;;;50.85;26.88;;;;;;;7.35;100.00;99111.75;5094344;28;20035;-89
2022/01/10 02:10:46;;;;;;;50.95;25.48;;;;;;;7.19;100.00;99087.31;5075642;28;20405;-84
2022/01/10 02:13:12;;;;;;;48.22;27.23;;;;;;;7.36;100.00;99117.72;5093803;28;20561;-84
2022/01/10 02:15:58;;;;;;;48.83;26.73;;;;;;;7.33;100.00;99115.94;5075442;28;20059;-87
2022/01/10 02:18:24;;;;;;;48.83;26.48;;;;;;;7.31;100.00;99106.47;5075541;28;20028;-82
2022/01/10 02:20:51;;;;;;;49.35;25.45;;;;;;;7.38;100.00;99100.69;5093467;28;20089;-82
2022/01/10 02:23:18;;;;;;;50.97;25.70;;;;;;;7.36;100.00;99095.47;5093434;28;20050;-80
2022/01/10 02:25:45;;;;;;;52.83;26.40;;;;;;;7.19;100.00;99069.34;5093628;28;20028;-79
2022/01/10 02:28:11;;;;;;;61.60;28.85;;;;;;;7.36;100.00;99094.63;5093553;28;20459;-79
2022/01/10 02:30:38;;;;;;;70.63;28.85;;;;;;;7.18;100.00;99062.47;5093238;28;20085;-80
2022/01/10 02:33:04;;;;;;;52.22;27.13;;;;;;;7.42;100.00;99103.34;5093104;28;20528;-79
2022/01/10 02:35:40;;;;;;;71.07;29.17;;;;;;;7.48;100.00;99104.34;5092923;28;20028;-79
2022/01/10 02:38:06;;;;;;;48.72;24.35;;;;;;;7.36;100.00;99085.22;5093266;28;20032;-78
2022/01/10 02:40:33;;;;;;;86.80;32.80;;;;;;;7.20;100.00;99052.25;5093328;28;20024;-80
2022/01/10 02:42:59;;;;;;;64.10;29.05;;;;;;;7.24;100.00;99059.19;5074995;28;20031;-78
2022/01/10 02:45:25;;;;;;;60.25;28.75;;;;;;;7.38;100.00;99077.56;5075195;28;20035;-81
2022/01/10 02:47:52;;;;;;;62.95;27.27;;;;;;;7.43;100.00;99094.81;5075021;28;20024;-81
2022/01/10 02:50:19;;;;;;;57.47;25.73;;;;;;;7.44;100.00;99093.16;5074620;28;20035;-80
2022/01/10 02:52:45;;;;;;;66.80;29.02;;;;;;;7.46;100.00;99109.44;5093357;28;20104;-91
2022/01/10 02:55:12;;;;;;;59.47;25.15;;;;;;;7.43;100.00;99107.66;5074925;28;20513;-88
2022/01/10 02:57:38;;;;;;;63.22;28.25;;;;;;;7.13;100.00;99057.22;5075130;28;20122;-89
2022/01/10 03:00:12;;;;;;;57.20;26.40;;;;;;;7.45;100.00;99111.16;5075030;28;20067;-91
2022/01/10 03:02:38;;;;;;;54.80;25.50;;;;;;;7.32;100.00;99087.66;5074453;28;20127;-84
2022/01/10 03:05:05;;;;;;;64.35;28.23;;;;;;;7.32;100.00;99101.38;5074359;28;20450;-90
2022/01/10 03:07:31;;;;;;;61.95;25.77;;;;;;;7.41;100.00;99118.72;5074651;28;20028;-83
2022/01/10 03:09:57;;;;;;;61.67;26.45;;;;;;;7.44;100.00;99116.25;5074503;28;20496;-82
2022/01/10 03:12:23;;;;;;;53.65;24.05;;;;;;;7.40;100.00;99120.44;5092794;28;20043;-83
2022/01/10 03:14:49;;;;;;;66.53;26.48;;;;;;;7.10;100.00;99069.09;5092265;28;20032;-84
2022/01/10 03:17:14;;;;;;;58.85;27.85;;;;;;;7.37;100.00;99109.19;5074082;28;20056;-83
2022/01/10 03:19:42;;;;;;;46.38;25.13;;;;;;;7.38;100.00;99108.38;5074099;28;20478;-87
2022/01/10 03:22:08;;;;;;;69.43;29.45;;;;;;;7.45;100.00;99112.84;5074519;28;20075;-85
2022/01/10 03:24:34;;;;;;;87.38;32.13;;;;;;;7.13;100.00;99056.34;5074270;28;20397;-87
2022/01/10 03:27:00;;;;;;;60.85;27.10;;;;;;;7.47;100.00;99115.47;5074167;28;20067;-87
2022/01/10 03:29:26;;;;;;;60.33;27.55;;;;;;;7.09;100.00;99046.81;5073388;28;20093;-86
2022/01/10 03:31:51;;;;;;;66.10;28.63;;;;;;;7.08;100.00;99055.38;5092062;28;20040;-86
2022/01/10 03:34:17;;;;;;;70.38;29.38;;;;;;;7.29;100.00;99091.03;5049054;28;20047;-89
2022/01/10 03:36:44;;;;;;;62.67;27.65;;;;;;;7.32;100.00;99096.22;5049365;28;20044;-87
2022/01/10 03:39:11;;;;;;;72.07;27.88;;;;;;;7.48;100.00;99130.03;5032647;28;20081;-85
2022/01/10 03:41:36;;;;;;;81.10;29.02;;;;;;;7.24;100.00;99088.31;5032630;28;20040;-84
2022/01/10 03:44:03;;;;;;;61.42;27.10;;;;;;;7.41;100.00;99117.03;5032654;28;20040;-90
2022/01/10 03:46:31;;;;;;;68.57;27.77;;;;;;;7.10;100.00;99058.81;5049175;28;20045;-82
2022/01/10 03:48:56;;;;;;;74.22;30.52;;;;;;;7.35;100.00;99106.59;5032467;28;20036;-85
2022/01/10 03:51:22;;;;;;;71.72;32.80;;;;;;;7.24;100.00;99084.88;5032486;28;20094;-84
2022/01/10 03:53:47;;;;;;;61.60;27.40;;;;;;;7.34;100.00;99101.41;5049146;28;20044;-91
2022/01/10 03:56:13;;;;;;;64.68;28.85;;;;;;;7.34;100.00;99098.84;5032939;28;20033;-89
2022/01/10 03:58:38;;;;;;;60.05;27.88;;;;;;;7.43;100.00;99117.94;5049611;28;20025;-87
2022/01/10 04:01:05;;;;;;;57.63;25.15;;;;;;;7.45;100.00;99110.25;5048783;28;20422;-83
2022/01/10 04:03:31;;;;;;;56.85;27.42;;;;;;;7.42;100.00;99116.19;5049084;28;20123;-81
2022/01/10 04:05:58;;;;;;;59.72;27.42;;;;;;;7.46;100.00;99129.97;5082037;28;20040;-84
2022/01/10 04:08:24;;;;;;;66.30;27.73;;;;;;;7.28;100.00;99102.13;5073451;28;20409;-82
2022/01/10 04:10:51;;;;;;;59.30;27.73;;;;;;;7.37;100.00;99124.59;5091526;28;20542;-82
2022/01/10 04:13:16;;;;;;;55.13;27.00;;;;;;;7.35;100.00;99126.25;5073171;28;20413;-82
2022/01/10 04:15:42;;;;;;;52.38;26.42;;;;;;;7.35;100.00;99121.13;5073066;28;20052;-82
2022/01/10 04:18:07;;;;;;;47.92;24.38;;;;;;;7.25;100.00;99114.84;5091310;28;20039;-83
2022/01/10 04:20:33;;;;;;;53.85;24.83;;;;;;;7.40;100.00;99145.22;5091521;28;20035;-72
2022/01/10 04:22:58;;;;;;;60.05;27.52;;;;;;;7.34;100.00;99151.06;5091413;28;20515;-73
2022/01/10 04:25:24;;;;;;;60.15;29.90;;;;;;;7.28;100.00;99135.50;5091232;28;20028;-73
2022/01/10 04:27:49;;;;;;;68.07;30.90;;;;;;;7.31;100.00;99139.84;5091229;28;20020;-74
2022/01/10 04:30:15;;;;;;;61.95;28.42;;;;;;;7.44;100.00;99159.91;5091048;28;20089;-72
2022/01/10 04:32:42;;;;;;;70.82;30.27;;;;;;;7.16;100.00;99118.03;5091077;28;20466;-74
2022/01/10 04:35:08;;;;;;;62.30;28.52;;;;;;;7.31;100.00;99137.28;5091130;28;20040;-74
2022/01/10 04:37:33;;;;;;;72.75;31.35;;;;;;;7.32;100.00;99149.28;5091179;28;20116;-74
2022/01/10 04:39:59;;;;;;;71.50;31.27;;;;;;;7.41;100.00;99175.22;5091083;28;20081;-74
2022/01/10 04:42:24;;;;;;;67.68;30.58;;;;;;;7.43;100.00;99171.00;5091027;28;20028;-72
2022/01/10 04:44:50;;;;;;;80.07;32.03;;;;;;;7.35;100.00;99164.75;5090958;28;20488;-74
2022/01/10 04:47:16;;;;;;;76.47;32.85;;;;;;;7.34;100.00;99163.00;5090844;28;20043;-75
2022/01/10 04:52:26;;;;;;;66.43;30.10;;;;;;;7.07;100.00;99133.16;5091160;28;20126;-75
2022/01/10 04:54:52;;;;;;;64.57;30.00;;;;;;;7.28;100.00;99171.44;5090921;28;20028;-75
2022/01/10 04:57:17;;;;;;;73.93;32.50;;;;;;;7.29;100.00;99174.03;5090814;28;20028;-74
2022/01/10 04:59:43;;;;;;;73.55;29.95;;;;;;;7.30;100.00;99180.03;5090811;28;20489;-76
2022/01/10 05:02:10;;;;;;;75.07;30.58;;;;;;;7.28;100.00;99182.56;5055207;28;20148;-75
2022/01/10 05:04:35;;;;;;;79.35;32.10;;;;;;;7.13;100.00;99151.31;5090879;28;20036;-76
2022/01/10 05:07:01;;;;;;;65.88;29.15;;;;;;;7.38;100.00;99177.69;5090848;28;20024;-74
2022/01/10 05:09:27;;;;;;;80.40;31.27;;;;;;;7.32;100.00;99178.38;5090684;28;20028;-75
2022/01/10 05:11:52;;;;;;;77.00;32.08;;;;;;;7.32;100.00;99185.22;5090732;28;20084;-74
2022/01/10 05:14:17;;;;;;;79.10;29.83;;;;;;;7.34;100.00;99186.13;5090630;28;20105;-74
2022/01/10 05:16:44;;;;;;;82.53;32.28;;;;;;;7.05;100.00;99145.06;5090815;28;20185;-74
2022/01/10 05:19:09;;;;;;;81.00;30.48;;;;;;;7.33;100.00;99179.25;5090893;28;20024;-74
2022/01/10 05:21:35;;;;;;;64.00;27.60;;;;;;;7.35;100.00;99191.31;5090804;28;20031;-75
2022/01/10 05:24:01;;;;;;;71.43;31.45;;;;;;;7.37;100.00;99192.22;5090794;28;20032;-75
2022/01/10 05:26:26;;;;;;;78.88;32.72;;;;;;;7.24;100.00;99180.72;5090587;28;20098;-73
2022/01/10 05:28:53;;;;;;;69.78;30.20;;;;;;;7.34;100.00;99192.16;5090547;28;20401;-73
2022/01/10 05:31:18;;;;;;;80.30;31.75;;;;;;;7.34;100.00;99197.28;5090653;28;20039;-73
2022/01/10 05:33:44;;;;;;;75.57;30.80;;;;;;;7.27;100.00;99170.53;5090625;28;20032;-73
2022/01/10 05:36:10;;;;;;;75.32;30.30;;;;;;;7.06;100.00;99134.00;5090656;28;20470;-79
2022/01/10 05:38:35;;;;;;;77.60;33.55;;;;;;;7.35;100.00;99191.31;5090563;28;20051;-78
2022/01/10 05:41:01;;;;;;;73.93;32.40;;;;;;;7.31;100.00;99199.75;5090576;28;20039;-74
2022/01/10 05:43:27;;;;;;;92.30;36.03;;;;;;;7.32;100.00;99200.63;5090359;28;20044;-74
2022/01/10 05:45:52;;;;;;;80.68;32.38;;;;;;;7.07;100.00;99152.00;5087343;28;20043;-75
2022/01/10 05:48:25;;;;;;;85.47;32.00;;;;;;;7.34;100.00;99197.28;5086730;28;20107;-80
2022/01/10 05:50:51;;;;;;;64.95;30.15;;;;;;;7.33;100.00;99205.81;5089542;28;20478;-77
2022/01/10 05:53:16;;;;;;;59.65;27.00;;;;;;;7.31;100.00;99207.44;5086331;28;20115;-75
2022/01/10 05:55:42;;;;;;;59.63;28.70;;;;;;;7.11;100.00;99170.91;5081095;28;20028;-78
2022/01/10 05:58:07;;;;;;;73.90;32.53;;;;;;;7.32;100.00;99209.19;5072963;28;20034;-76
2022/01/10 06:00:34;;;;;;;70.07;35.22;;;;;;;7.25;100.00;99197.88;5073121;28;20168;-76
2022/01/10 06:03:00;;;;;;;81.40;41.78;;;;;;;7.31;100.00;99216.84;5073433;28;20059;-77
2022/01/10 06:05:30;;;;;;;113.28;59.25;;;;;;;7.36;100.00;99211.00;5073007;28;20025;-76
2022/01/10 06:07:59;;;;;;;118.47;73.38;;;;;;;7.24;100.00;99196.13;5083007;28;20051;-76
2022/01/10 06:10:25;;;;;;;91.82;41.55;;;;;;;7.34;100.00;99216.94;5078030;28;20507;-77
2022/01/10 06:12:51;;;;;;;85.65;33.55;;;;;;;7.36;100.00;99215.28;5074943;28;20032;-78
2022/01/10 06:15:16;;;;;;;83.07;31.77;;;;;;;7.40;100.00;99220.56;5074162;28;20474;-77
2022/01/10 06:17:42;;;;;;;71.57;30.38;;;;;;;7.36;100.00;99205.03;5073338;28;20036;-77
2022/01/10 06:20:08;;;;;;;62.15;26.45;;;;;;;7.43;100.00;99230.06;5072082;28;20379;-77
2022/01/10 06:22:33;;;;;;;57.33;25.95;;;;;;;7.33;100.00;99213.50;5072306;28;20445;-78
2022/01/10 06:24:59;;;;;;;43.47;24.13;;;;;;;7.47;100.00;99234.44;5071334;28;20028;-78
2022/01/10 06:27:26;;;;;;;49.97;24.52;;;;;;;7.32;100.00;99204.06;5072890;28;20476;-78
2022/01/10 06:29:52;;;;;;;64.90;24.98;;;;;;;7.52;100.00;99234.59;5072747;28;20051;-78
2022/01/10 06:32:18;;;;;;;80.28;30.50;;;;;;;7.55;100.00;99227.84;5076560;28;20032;-78
2022/01/10 06:34:44;;;;;;;83.10;36.97;;;;;;;7.59;100.00;99232.22;5071495;28;20532;-80
2022/01/10 06:37:10;;;;;;;74.40;29.23;;;;;;;7.52;100.00;99222.59;5072434;28;20028;-81
2022/01/10 06:39:35;;;;;;;60.10;26.88;;;;;;;7.41;100.00;99201.78;5071619;28;20430;-80
2022/01/10 06:42:01;;;;;;;60.30;29.80;;;;;;;7.66;100.00;99234.97;5072687;28;20027;-71
2022/01/10 06:44:26;;;;;;;61.25;26.42;;;;;;;7.37;100.00;99183.66;5064648;28;20108;-81
2022/01/10 06:46:53;;;;;;;56.08;23.95;;;;;;;7.60;100.00;99235.66;5070498;28;20435;-81
2022/01/10 06:49:19;;;;;;;59.78;24.77;;;;;;;7.56;100.00;99236.41;5085515;28;20055;-81
2022/01/10 06:51:44;;;;;;;55.80;21.55;;;;;;;7.52;100.00;99240.59;5091462;28;20478;-81
2022/01/10 06:54:09;;;;;;;38.95;18.33;;;;;;;7.53;100.00;99237.19;5073459;28;20043;-81
2022/01/10 06:56:35;;;;;;;44.05;20.83;;;;;;;7.53;100.00;99228.63;5073783;28;20479;-80
2022/01/10 06:59:00;;;;;;;44.55;20.30;;;;;;;7.51;100.00;99232.84;5082247;28;20036;-81
2022/01/10 07:01:26;;;;;;;39.00;19.88;;;;;;;7.56;100.00;99229.59;5089842;28;20028;-81
2022/01/10 07:03:57;;;;;;;37.05;19.23;;;;;;;7.44;100.00;99195.84;5087768;28;20795;-80
2022/01/10 07:06:23;;;;;;;42.47;18.20;;;;;;;7.57;100.00;99221.03;5079864;28;20115;-81
2022/01/10 07:08:48;;;;;;;32.70;18.83;;;;;;;7.58;100.00;99229.63;5070823;28;20486;-80
2022/01/10 07:11:14;;;;;;;39.03;19.35;;;;;;;7.58;100.00;99233.06;5076383;28;20029;-80
2022/01/10 07:13:39;;;;;;;36.25;18.73;;;;;;;7.59;100.00;99239.94;5071230;28;20028;-80
2022/01/10 07:16:05;;;;;;;34.58;17.73;;;;;;;7.26;100.00;99188.47;5071035;28;20052;-80
2022/01/10 07:18:30;;;;;;;35.70;16.55;;;;;;;7.61;100.00;99248.56;5070092;28;20039;-80
2022/01/10 07:20:56;;;;;;;39.63;21.52;;;;;;;7.65;100.00;99253.78;5071251;28;20543;-79
2022/01/10 07:23:22;;;;;;;50.58;29.20;;;;;;;7.59;100.00;99245.09;5070541;28;20028;-80
2022/01/10 07:25:48;;;;;;;62.53;36.25;;;;;;;7.65;100.00;99261.50;5071122;28;20093;-80
2022/01/10 07:28:14;;;;;;;43.30;20.30;;;;;;;7.54;100.00;99256.91;5071189;28;20024;-79
2022/01/10 07:30:39;;;;;;;76.05;50.58;;;;;;;7.58;100.00;99256.19;5068567;28;20027;-78
2022/01/10 07:33:05;;;;;;;51.03;34.88;;;;;;;7.61;100.00;99269.13;5088986;28;20032;-76
2022/01/10 07:35:30;;;;;;;45.70;20.58;;;;;;;7.45;100.00;99251.50;5072834;28;20047;-77
2022/01/10 07:37:55;;;;;;;46.03;34.90;;;;;;;7.55;100.00;99268.94;5068595;28;20069;-77
2022/01/10 07:40:21;;;;;;;45.05;23.02;;;;;;;7.64;100.00;99275.16;5078322;28;20028;-77
2022/01/10 07:42:46;;;;;;;51.35;23.75;;;;;;;7.61;100.00;99281.97;5084353;28;20024;-76
2022/01/10 07:45:12;;;;;;;62.72;27.80;;;;;;;7.67;100.00;99283.81;5047794;28;20036;-76
2022/01/10 07:47:38;;;;;;;49.90;24.65;;;;;;;7.72;100.00;99291.69;5048144;28;20033;-76
2022/01/10 07:50:05;;;;;;;59.28;22.42;;;;;;;7.53;100.00;99247.47;5047139;28;20064;-76
2022/01/10 07:52:30;;;;;;;54.60;30.33;;;;;;;7.59;100.00;99264.78;5045511;28;20120;-76
2022/01/10 07:54:56;;;;;;;51.75;27.85;;;;;;;7.66;100.00;99278.66;5047931;28;20578;-76
2022/01/10 07:57:21;;;;;;;39.40;18.88;;;;;;;7.41;100.00;99241.97;5047962;28;20086;-76
2022/01/10 07:59:47;;;;;;;46.40;17.90;;;;;;;7.61;100.00;99291.34;5046950;28;20037;-76
2022/01/10 08:02:13;;;;;;;48.30;20.25;;;;;;;7.63;100.00;99286.25;5029945;28;20033;-76
2022/01/10 08:04:38;;;;;;;39.25;17.80;;;;;;;7.71;100.00;99300.19;5034215;28;20036;-76
2022/01/10 08:07:05;;;;;;;39.38;17.73;;;;;;;7.68;100.00;99295.00;5028817;28;20101;-77
2022/01/10 08:09:30;;;;;;;35.80;19.15;;;;;;;7.69;100.00;99289.00;5028912;28;20043;-76
2022/01/10 08:11:59;;;;;;;52.22;20.98;;;;;;;7.73;100.00;99288.28;5028651;28;20128;-77
2022/01/10 08:14:29;;;;;;;48.73;20.30;;;;;;;7.68;100.00;99288.16;5028420;28;20514;-77
2022/01/10 08:16:55;;;;;;;51.20;20.77;;;;;;;7.71;100.00;99292.50;5048408;28;20677;-77
2022/01/10 08:19:22;;;;;;;51.78;23.48;;;;;;;7.67;100.00;99281.25;5070845;28;20036;-77
2022/01/10 08:21:48;;;;;;;62.67;24.15;;;;;;;7.73;100.00;99290.84;5052735;28;20055;-77
2022/01/10 08:24:14;;;;;;;52.97;20.27;;;;;;;7.73;100.00;99289.16;5071147;28;20028;-77
2022/01/10 08:26:40;;;;;;;48.08;22.85;;;;;;;7.67;100.00;99285.53;5070851;28;20033;-76
2022/01/10 08:29:06;;;;;;;44.92;20.00;;;;;;;7.72;100.00;99281.41;5070758;28;20031;-77
2022/01/10 08:31:33;;;;;;;54.33;21.70;;;;;;;7.74;100.00;99287.47;5035874;28;20556;-77
2022/01/10 08:34:00;;;;;;;47.20;20.60;;;;;;;7.69;100.00;99286.44;5070520;28;20394;-77
2022/01/10 08:36:28;;;;;;;55.13;22.23;;;;;;;7.74;100.00;99279.75;5070579;28;20051;-77
2022/01/10 08:38:54;;;;;;;52.55;21.77;;;;;;;7.76;100.00;99288.34;5078868;28;20036;-77
2022/01/10 08:41:19;;;;;;;54.15;21.70;;;;;;;7.71;100.00;99287.34;5090997;28;20028;-76
2022/01/10 08:43:45;;;;;;;53.30;22.30;;;;;;;7.58;100.00;99265.59;5090712;28;20024;-77
2022/01/10 08:46:10;;;;;;;43.25;21.20;;;;;;;7.75;100.00;99287.50;5073989;28;20025;-77
2022/01/10 08:48:35;;;;;;;64.88;23.23;;;;;;;7.74;100.00;99284.91;5070526;28;20025;-76
2022/01/10 08:51:01;;;;;;;47.42;22.05;;;;;;;7.76;100.00;99289.25;5070525;28;20024;-76
2022/01/10 08:53:27;;;;;;;40.67;17.77;;;;;;;7.51;100.00;99248.25;5070622;28;20036;-78
2022/01/10 08:55:52;;;;;;;35.58;15.52;;;;;;;7.71;100.00;99289.94;5070780;28;20020;-77
2022/01/10 08:58:19;;;;;;;33.55;14.52;;;;;;;7.52;100.00;99245.72;5081212;28;20024;-76
2022/01/10 09:00:44;;;;;;;39.55;22.55;;;;;;;7.77;100.00;99285.81;5083042;28;20115;-76
2022/01/10 09:03:10;;;;;;;42.60;17.38;;;;;;;7.77;100.00;99290.09;5086912;28;20091;-76
2022/01/10 09:05:35;;;;;;;37.63;18.17;;;;;;;7.81;100.00;99291.94;5085406;28;20793;-77
2022/01/10 09:08:03;;;;;;;41.53;19.27;;;;;;;7.75;100.00;99294.31;5062574;28;20029;-76
2022/01/10 09:10:29;;;;;;;42.83;20.20;;;;;;;7.79;100.00;99301.31;5078839;28;20634;-77
2022/01/10 09:12:55;;;;;;;33.55;16.33;;;;;;;7.78;100.00;99285.00;5080694;28;20028;-76
2022/01/10 09:15:20;;;;;;;43.85;19.00;;;;;;;7.79;100.00;99291.03;5080023;28;20169;-76
2022/01/10 09:17:46;;;;;;;30.08;15.52;;;;;;;7.73;100.00;99289.16;5078938;28;20481;-76
2022/01/10 09:20:11;;;;;;;40.28;20.17;;;;;;;7.78;100.00;99286.72;5081153;28;20028;-76
2022/01/10 09:22:37;;;;;;;46.05;25.70;;;;;;;7.76;100.00;99278.97;5079789;28;20025;-76
2022/01/10 09:25:04;;;;;;;44.05;20.42;;;;;;;7.80;100.00;99281.63;5079603;28;20024;-76
2022/01/10 09:27:29;;;;;;;41.60;18.45;;;;;;;7.63;100.00;99251.19;5083558;28;20042;-76
2022/01/10 09:29:55;;;;;;;40.10;17.40;;;;;;;7.65;100.00;99239.25;5083408;28;20498;-74
2022/01/10 09:32:20;;;;;;;23.95;14.02;;;;;;;7.75;100.00;99251.53;5089523;28;20062;-73
2022/01/10 09:34:46;;;;;;;26.35;13.60;;;;;;;7.81;100.00;99255.09;5083076;28;20024;-75
2022/01/10 09:37:11;;;;;;;26.13;14.13;;;;;;;7.90;100.00;99271.66;5084774;28;20409;-74
2022/01/10 09:39:37;;;;;;;38.22;17.08;;;;;;;7.96;100.00;99263.22;5082847;28;20452;-75
2022/01/10 09:42:03;;;;;;;42.55;18.95;;;;;;;7.87;100.00;99247.56;5083484;28;20026;-75
2022/01/10 09:44:28;;;;;;;48.05;19.30;;;;;;;7.92;100.00;99259.72;5084605;28;20391;-77
2022/01/10 09:46:54;;;;;;;42.22;17.13;;;;;;;7.74;100.00;99229.25;5082204;28;20017;-77
2022/01/10 09:49:20;;;;;;;52.42;18.15;;;;;;;7.79;100.00;99229.38;5084129;28;20081;-77
2022/01/10 09:51:46;;;;;;;34.42;14.70;;;;;;;7.91;100.00;99251.94;5083805;28;20088;-77
2022/01/10 09:54:12;;;;;;;27.23;12.70;;;;;;;7.97;100.00;99261.56;5082483;28;20433;-78
2022/01/10 09:56:39;;;;;;;44.40;16.63;;;;;;;7.58;100.00;99196.25;5084153;28;20023;-77
2022/01/10 09:59:05;;;;;;;36.40;15.52;;;;;;;8.00;100.00;99259.94;5083692;28;20069;-77
2022/01/10 10:01:31;;;;;;;33.75;13.02;;;;;;;8.03;100.00;99264.28;5082197;28;20487;-77
2022/01/10 10:03:59;;;;;;;32.90;12.80;;;;;;;7.95;100.00;99258.94;5083987;28;20024;-77
2022/01/10 10:06:26;;;;;;;34.80;13.77;;;;;;;7.73;100.00;99224.06;5083357;28;20025;-77
2022/01/10 10:08:52;;;;;;;36.05;13.90;;;;;;;7.89;100.00;99256.19;5064362;28;20033;-77
2022/01/10 10:11:17;;;;;;;32.00;10.60;;;;;;;7.84;100.00;99257.75;5084366;28;20106;-77
2022/01/10 10:13:54;;;;;;;35.50;13.38;;;;;;;7.90;100.00;99253.66;5075001;28;20040;-78
2022/01/10 10:16:21;;;;;;;25.80;9.60;;;;;;;7.92;100.00;99263.97;5090909;28;20043;-78
2022/01/10 10:18:47;;;;;;;23.98;10.68;;;;;;;7.93;100.00;99252.88;5093086;28;20016;-77
2022/01/10 10:21:22;;;;;;;27.20;8.60;;;;;;;7.91;100.00;99246.81;5092915;28;20603;-76
2022/01/10 10:23:50;;;;;;;14.70;6.80;;;;;;;7.84;100.00;99238.06;5092843;28;20024;-77
2022/01/10 10:26:23;;;;;;;20.83;8.45;;;;;;;7.88;100.00;99249.31;5090419;28;20028;-76
2022/01/10 10:28:50;;;;;;;16.83;6.60;;;;;;;7.78;100.00;99245.63;5092616;28;20085;-76
2022/01/10 10:31:30;;;;;;;31.58;7.10;;;;;;;7.83;100.00;99246.59;5085866;28;20032;-77
2022/01/10 10:33:58;;;;;;;19.30;7.10;;;;;;;7.89;100.00;99253.63;5090258;28;20032;-76
2022/01/10 10:36:30;;;;;;;21.13;7.93;;;;;;;7.81;100.00;99244.81;5074659;28;20489;-76
2022/01/10 10:38:57;;;;;;;20.05;8.48;;;;;;;7.88;100.00;99257.03;5092651;28;20020;-76
2022/01/10 10:41:23;;;;;;;18.88;7.72;;;;;;;7.90;100.00;99250.22;5090279;28;20028;-76
2022/01/10 10:43:51;;;;;;;26.75;9.85;;;;;;;7.85;100.00;99251.78;5091468;28;20106;-76
2022/01/10 10:46:18;;;;;;;38.75;12.38;;;;;;;7.93;100.00;99253.75;5072472;28;20039;-77
2022/01/10 10:49:00;;;;;;;26.33;12.60;;;;;;;7.83;100.00;99225.19;5080217;28;20032;-77
2022/01/10 10:51:33;;;;;;;26.38;10.18;;;;;;;7.97;100.00;99264.97;5091051;28;20035;-78
2022/01/10 10:54:08;;;;;;;31.73;12.60;;;;;;;7.74;100.00;99216.38;5085566;28;20554;-78
2022/01/10 10:56:36;;;;;;;26.80;10.52;;;;;;;7.99;100.00;99259.88;5073717;28;20059;-78
2022/01/10 10:59:04;;;;;;;38.63;14.50;;;;;;;7.98;100.00;99261.59;5088217;28;20032;-78
2022/01/10 11:01:29;;;;;;;32.95;17.55;;;;;;;7.84;100.00;99245.78;5089958;28;20115;-77
2022/01/10 11:03:55;;;;;;;23.25;12.68;;;;;;;7.98;100.00;99263.28;5091916;28;20111;-77
2022/01/10 11:06:21;;;;;;;38.05;14.32;;;;;;;7.83;100.00;99254.31;5091772;28;20103;-77
2022/01/10 11:08:48;;;;;;;31.75;14.20;;;;;;;7.89;100.00;99266.47;5092063;28;20028;-78
2022/01/10 11:11:22;;;;;;;35.53;15.13;;;;;;;7.87;100.00;99275.84;5091962;28;20043;-78
2022/01/10 11:13:51;;;;;;;21.73;11.55;;;;;;;7.86;100.00;99272.41;5091980;28;20111;-79
2022/01/10 11:16:17;;;;;;;37.38;16.58;;;;;;;7.89;100.00;99271.63;5091787;28;20418;-79
2022/01/10 11:18:43;;;;;;;31.02;16.10;;;;;;;7.73;100.00;99254.88;5091693;28;20051;-77
2022/01/10 11:21:09;;;;;;;42.05;16.40;;;;;;;7.90;100.00;99275.91;5089825;28;20056;-76
2022/01/10 11:23:44;;;;;;;54.60;25.83;;;;;;;7.69;100.00;99243.66;5090953;28;20020;-77
2022/01/10 11:26:12;;;;;;;60.88;21.17;;;;;;;7.94;100.00;99280.31;5079434;28;20084;-77
2022/01/10 11:28:49;;;;;;;36.50;16.27;;;;;;;7.93;100.00;99279.44;5072067;28;20039;-77
2022/01/10 11:31:26;;;;;;;31.13;15.07;;;;;;;7.94;100.00;99272.63;5076734;28;20482;-77